sensor_id;sensor_type;location;lat;lon;timestamp;pressure;altitude;pressure_sealevel;temperature;humidity
6599;BME280;3335;43.198;27.918;2023-03-02T00:00:32;148717.25;;;5.77;100.00
6599;BME280;3335;43.198;27.918;2023-03-02T00:03:00;148730.94;;;5.82;100.00
6599;BME280;3335;43.198;27.918;2023-03-02T00:05:27;148748.41;;;5.89;100.00
6599;BME280;3335;43.198;27.918;2023-03-02T00:07:57;148760.84;;;5.94;100.00
6599;BME280;3335;43.198;27.918;2023-03-02T00:10:25;148738.41;;;5.85;100.00
6599;BME280;3335;43.198;27.918;2023-03-02T00:12:52;148753.41;;;5.91;100.00
6599;BME280;3335;43.198;27.918;2023-03-02T00:15:19;148763.34;;;5.95;100.00
6599;BME280;3335;43.198;27.918;2023-03-02T00:17:45;148750.91;;;5.90;100.00
6599;BME280;3335;43.198;27.918;2023-03-02T00:20:13;148645.06;;;5.47;100.00
6599;BME280;3335;43.198;27.918;2023-03-02T00:22:41;148748.41;;;5.89;100.00
6599;BME280;3335;43.198;27.918;2023-03-02T00:25:11;148748.41;;;5.89;100.00
6599;BME280;3335;43.198;27.918;2023-03-02T00:27:38;148733.44;;;5.83;100.00
6599;BME280;3335;43.198;27.918;2023-03-02T00:30:06;148748.41;;;5.89;100.00
6599;BME280;3335;43.198;27.918;2023-03-02T00:32:33;148740.91;;;5.86;100.00
6599;BME280;3335;43.198;27.918;2023-03-02T00:35:00;148758.41;;;5.93;100.00
6599;BME280;3335;43.198;27.918;2023-03-02T00:37:27;148753.41;;;5.91;100.00
6599;BME280;3335;43.198;27.918;2023-03-02T00:39:54;148773.31;;;5.99;100.00
6599;BME280;3335;43.198;27.918;2023-03-02T00:42:22;148788.25;;;6.05;100.00
6599;BME280;3335;43.198;27.918;2023-03-02T00:44:51;148770.84;;;5.98;100.00
6599;BME280;3335;43.198;27.918;2023-03-02T00:47:18;148773.31;;;5.99;100.00
6599;BME280;3335;43.198;27.918;2023-03-02T00:49:45;148764.59;;;5.96;100.00
6599;BME280;3335;43.198;27.918;2023-03-02T00:52:14;148769.59;;;5.98;100.00
6599;BME280;3335;43.198;27.918;2023-03-02T00:54:41;148765.84;;;5.96;100.00
6599;BME280;3335;43.198;27.918;2023-03-02T00:57:08;148757.16;;;5.93;100.00
6599;BME280;3335;43.198;27.918;2023-03-02T00:59:37;148754.66;;;5.92;100.00
6599;BME280;3335;43.198;27.918;2023-03-02T01:02:05;148727.19;;;5.81;100.00
6599;BME280;3335;43.198;27.918;2023-03-02T01:04:34;148723.50;;;5.79;100.00
6599;BME280;3335;43.198;27.918;2023-03-02T01:07:03;148694.84;;;5.67;100.00
6599;BME280;3335;43.198;27.918;2023-03-02T01:09:31;148737.16;;;5.85;100.00
6599;BME280;3335;43.198;27.918;2023-03-02T01:11:58;148735.94;;;5.84;100.00
6599;BME280;3335;43.198;27.918;2023-03-02T01:14:25;148730.94;;;5.82;100.00
6599;BME280;3335;43.198;27.918;2023-03-02T01:16:53;148755.91;;;5.92;100.00
6599;BME280;3335;43.198;27.918;2023-03-02T01:19:20;148755.91;;;5.92;100.00
6599;BME280;3335;43.198;27.918;2023-03-02T01:21:47;148733.44;;;5.83;100.00
6599;BME280;3335;43.198;27.918;2023-03-02T01:24:14;148724.75;;;5.80;100.00
6599;BME280;3335;43.198;27.918;2023-03-02T01:26:41;148728.44;;;5.81;100.00
6599;BME280;3335;43.198;27.918;2023-03-02T01:29:08;148708.56;;;5.73;100.00
6599;BME280;3335;43.198;27.918;2023-03-02T01:31:36;148698.59;;;5.69;100.00
6599;BME280;3335;43.198;27.918;2023-03-02T01:34:04;148708.56;;;5.73;100.00
6599;BME280;3335;43.198;27.918;2023-03-02T01:36:32;148711.06;;;5.74;100.00
6599;BME280;3335;43.198;27.918;2023-03-02T01:38:59;148718.50;;;5.77;100.00
6599;BME280;3335;43.198;27.918;2023-03-02T01:41:26;148744.69;;;5.88;100.00
6599;BME280;3335;43.198;27.918;2023-03-02T01:43:53;148738.41;;;5.85;100.00
6599;BME280;3335;43.198;27.918;2023-03-02T01:46:21;148730.94;;;5.82;100.00
6599;BME280;3335;43.198;27.918;2023-03-02T01:48:51;148743.44;;;5.87;100.00
6599;BME280;3335;43.198;27.918;2023-03-02T01:51:23;148753.41;;;5.91;100.00
6599;BME280;3335;43.198;27.918;2023-03-02T01:53:53;148740.91;;;5.86;100.00
6599;BME280;3335;43.198;27.918;2023-03-02T01:56:25;148718.50;;;5.77;100.00
6599;BME280;3335;43.198;27.918;2023-03-02T01:58:56;148576.66;;;5.19;100.00
6599;BME280;3335;43.198;27.918;2023-03-02T02:01:27;148706.06;;;5.72;100.00
6599;BME280;3335;43.198;27.918;2023-03-02T02:03:55;148750.91;;;5.90;100.00
6599;BME280;3335;43.198;27.918;2023-03-02T02:06:27;148762.09;;;5.95;100.00
6599;BME280;3335;43.198;27.918;2023-03-02T02:08:55;148752.16;;;5.91;100.00
6599;BME280;3335;43.198;27.918;2023-03-02T02:11:24;148753.41;;;5.91;100.00
6599;BME280;3335;43.198;27.918;2023-03-02T02:13:53;148738.41;;;5.85;100.00
6599;BME280;3335;43.198;27.918;2023-03-02T02:16:22;148747.19;;;5.89;100.00
6599;BME280;3335;43.198;27.918;2023-03-02T02:18:49;148725.94;;;5.80;100.00
6599;BME280;3335;43.198;27.918;2023-03-02T02:21:17;148735.94;;;5.84;100.00
6599;BME280;3335;43.198;27.918;2023-03-02T02:23:53;148749.66;;;5.90;100.00
6599;BME280;3335;43.198;27.918;2023-03-02T02:26:26;148754.66;;;5.92;100.00
6599;BME280;3335;43.198;27.918;2023-03-02T02:28:59;148749.66;;;5.90;100.00
6599;BME280;3335;43.198;27.918;2023-03-02T02:31:32;148764.59;;;5.96;100.00
6599;BME280;3335;43.198;27.918;2023-03-02T02:34:05;148768.34;;;5.97;100.00
6599;BME280;3335;43.198;27.918;2023-03-02T02:36:39;148765.84;;;5.96;100.00
6599;BME280;3335;43.198;27.918;2023-03-02T02:39:10;148767.09;;;5.97;100.00
6599;BME280;3335;43.198;27.918;2023-03-02T02:41:42;148780.78;;;6.02;100.00
6599;BME280;3335;43.198;27.918;2023-03-02T02:44:13;148768.34;;;5.97;100.00
6599;BME280;3335;43.198;27.918;2023-03-02T02:46:41;148768.34;;;5.97;100.00
6599;BME280;3335;43.198;27.918;2023-03-02T02:49:17;148764.59;;;5.96;100.00
6599;BME280;3335;43.198;27.918;2023-03-02T02:51:46;148763.34;;;5.95;100.00
6599;BME280;3335;43.198;27.918;2023-03-02T02:54:16;148768.34;;;5.97;100.00
6599;BME280;3335;43.198;27.918;2023-03-02T02:56:45;148763.34;;;5.95;100.00
6599;BME280;3335;43.198;27.918;2023-03-02T02:59:17;148753.41;;;5.91;100.00
6599;BME280;3335;43.198;27.918;2023-03-02T03:01:45;148748.41;;;5.89;100.00
6599;BME280;3335;43.198;27.918;2023-03-02T03:04:18;148760.84;;;5.94;100.00
6599;BME280;3335;43.198;27.918;2023-03-02T03:06:51;148764.59;;;5.96;100.00
6599;BME280;3335;43.198;27.918;2023-03-02T03:09:18;148768.34;;;5.97;100.00
6599;BME280;3335;43.198;27.918;2023-03-02T03:11:48;148743.44;;;5.87;100.00
6599;BME280;3335;43.198;27.918;2023-03-02T03:14:17;148740.91;;;5.86;100.00
6599;BME280;3335;43.198;27.918;2023-03-02T03:16:46;148754.66;;;5.92;100.00
6599;BME280;3335;43.198;27.918;2023-03-02T03:19:17;148767.09;;;5.97;100.00
6599;BME280;3335;43.198;27.918;2023-03-02T03:21:47;148714.75;;;5.76;100.00
6599;BME280;3335;43.198;27.918;2023-03-02T03:24:14;148760.84;;;5.94;100.00
6599;BME280;3335;43.198;27.918;2023-03-02T03:26:41;148769.59;;;5.98;100.00
6599;BME280;3335;43.198;27.918;2023-03-02T03:29:10;148763.34;;;5.95;100.00
6599;BME280;3335;43.198;27.918;2023-03-02T03:31:38;148750.91;;;5.90;100.00
6599;BME280;3335;43.198;27.918;2023-03-02T03:34:05;148760.84;;;5.94;100.00
6599;BME280;3335;43.198;27.918;2023-03-02T03:36:33;148755.91;;;5.92;100.00
6599;BME280;3335;43.198;27.918;2023-03-02T03:39:01;148758.41;;;5.93;100.00
6599;BME280;3335;43.198;27.918;2023-03-02T03:41:28;148755.91;;;5.92;100.00
6599;BME280;3335;43.198;27.918;2023-03-02T03:43:55;148773.31;;;5.99;100.00
6599;BME280;3335;43.198;27.918;2023-03-02T03:46:23;148768.34;;;5.97;100.00
6599;BME280;3335;43.198;27.918;2023-03-02T03:48:50;148770.84;;;5.98;100.00
6599;BME280;3335;43.198;27.918;2023-03-02T03:51:17;148778.31;;;6.01;100.00
6599;BME280;3335;43.198;27.918;2023-03-02T03:53:44;148780.78;;;6.02;100.00
6599;BME280;3335;43.198;27.918;2023-03-02T03:56:11;148782.03;;;6.03;100.00
6599;BME280;3335;43.198;27.918;2023-03-02T03:58:38;148785.75;;;6.04;100.00
6599;BME280;3335;43.198;27.918;2023-03-02T04:01:05;148794.50;;;6.08;100.00
6599;BME280;3335;43.198;27.918;2023-03-02T04:03:34;148778.31;;;6.01;100.00
6599;BME280;3335;43.198;27.918;2023-03-02T04:06:00;148773.31;;;5.99;100.00
6599;BME280;3335;43.198;27.918;2023-03-02T04:08:27;148758.41;;;5.93;100.00
6599;BME280;3335;43.198;27.918;2023-03-02T04:10:54;148769.59;;;5.98;100.00
6599;BME280;3335;43.198;27.918;2023-03-02T04:13:21;148752.16;;;5.91;100.00
6599;BME280;3335;43.198;27.918;2023-03-02T04:15:48;148763.34;;;5.95;100.00
6599;BME280;3335;43.198;27.918;2023-03-02T04:18:15;148762.09;;;5.95;100.00
6599;BME280;3335;43.198;27.918;2023-03-02T04:20:43;148775.81;;;6.00;100.00
6599;BME280;3335;43.198;27.918;2023-03-02T04:23:10;148770.84;;;5.98;100.00
6599;BME280;3335;43.198;27.918;2023-03-02T04:25:38;148772.06;;;5.99;100.00
6599;BME280;3335;43.198;27.918;2023-03-02T04:28:05;148782.03;;;6.03;100.00
6599;BME280;3335;43.198;27.918;2023-03-02T04:30:31;148785.75;;;6.04;100.00
6599;BME280;3335;43.198;27.918;2023-03-02T04:32:58;148788.25;;;6.05;100.00
6599;BME280;3335;43.198;27.918;2023-03-02T04:35:25;148758.41;;;5.93;100.00
6599;BME280;3335;43.198;27.918;2023-03-02T04:37:54;148753.41;;;5.91;100.00
6599;BME280;3335;43.198;27.918;2023-03-02T04:40:21;148767.09;;;5.97;100.00
6599;BME280;3335;43.198;27.918;2023-03-02T04:42:47;148755.91;;;5.92;100.00
6599;BME280;3335;43.198;27.918;2023-03-02T04:45:14;148716.00;;;5.76;100.00
6599;BME280;3335;43.198;27.918;2023-03-02T04:47:42;148688.66;;;5.65;100.00
6599;BME280;3335;43.198;27.918;2023-03-02T04:50:10;148712.31;;;5.75;100.00
6599;BME280;3335;43.198;27.918;2023-03-02T04:52:38;148724.75;;;5.80;100.00
6599;BME280;3335;43.198;27.918;2023-03-02T04:55:07;148681.16;;;5.62;100.00
6599;BME280;3335;43.198;27.918;2023-03-02T04:57:34;148693.59;;;5.67;100.00
6599;BME280;3335;43.198;27.918;2023-03-02T05:00:01;148718.50;;;5.77;100.00
6599;BME280;3335;43.198;27.918;2023-03-02T05:02:29;148698.59;;;5.69;100.00
6599;BME280;3335;43.198;27.918;2023-03-02T05:04:56;148698.59;;;5.69;100.00
6599;BME280;3335;43.198;27.918;2023-03-02T05:07:23;148668.72;;;5.57;100.00
6599;BME280;3335;43.198;27.918;2023-03-02T05:09:50;148718.50;;;5.77;100.00
6599;BME280;3335;43.198;27.918;2023-03-02T05:12:18;148711.06;;;5.74;100.00
6599;BME280;3335;43.198;27.918;2023-03-02T05:14:46;148735.94;;;5.84;100.00
6599;BME280;3335;43.198;27.918;2023-03-02T05:17:13;148732.19;;;5.83;100.00
6599;BME280;3335;43.198;27.918;2023-03-02T05:19:40;148735.94;;;5.84;100.00
6599;BME280;3335;43.198;27.918;2023-03-02T05:22:07;148728.44;;;5.81;100.00
6599;BME280;3335;43.198;27.918;2023-03-02T05:24:34;148556.75;;;5.11;100.00
6599;BME280;3335;43.198;27.918;2023-03-02T05:27:01;148714.75;;;5.76;100.00
6599;BME280;3335;43.198;27.918;2023-03-02T05:29:30;148749.66;;;5.90;100.00
6599;BME280;3335;43.198;27.918;2023-03-02T05:31:56;148753.41;;;5.91;100.00
6599;BME280;3335;43.198;27.918;2023-03-02T05:34:23;148745.94;;;5.88;100.00
6599;BME280;3335;43.198;27.918;2023-03-02T05:36:51;148740.91;;;5.86;100.00
6599;BME280;3335;43.198;27.918;2023-03-02T05:39:18;148753.41;;;5.91;100.00
6599;BME280;3335;43.198;27.918;2023-03-02T05:41:45;148760.84;;;5.94;100.00
6599;BME280;3335;43.198;27.918;2023-03-02T05:44:11;148757.16;;;5.93;100.00
6599;BME280;3335;43.198;27.918;2023-03-02T05:46:40;148755.91;;;5.92;100.00
6599;BME280;3335;43.198;27.918;2023-03-02T05:49:07;148780.78;;;6.02;100.00
6599;BME280;3335;43.198;27.918;2023-03-02T05:51:35;148783.31;;;6.03;100.00
6599;BME280;3335;43.198;27.918;2023-03-02T05:54:01;148795.69;;;6.08;100.00
6599;BME280;3335;43.198;27.918;2023-03-02T05:56:29;148785.75;;;6.04;100.00
6599;BME280;3335;43.198;27.918;2023-03-02T05:58:56;148772.06;;;5.99;100.00
6599;BME280;3335;43.198;27.918;2023-03-02T06:01:23;148768.34;;;5.97;100.00
6599;BME280;3335;43.198;27.918;2023-03-02T06:03:51;148780.78;;;6.02;100.00
6599;BME280;3335;43.198;27.918;2023-03-02T06:06:18;148789.50;;;6.06;100.00
6599;BME280;3335;43.198;27.918;2023-03-02T06:08:45;148820.59;;;6.19;100.00
6599;BME280;3335;43.198;27.918;2023-03-02T06:11:11;148808.16;;;6.13;100.00
6599;BME280;3335;43.198;27.918;2023-03-02T06:13:39;148792.00;;;6.07;100.00
6599;BME280;3335;43.198;27.918;2023-03-02T06:16:07;148815.66;;;6.17;100.00
6599;BME280;3335;43.198;27.918;2023-03-02T06:18:34;148838.06;;;6.26;100.00
6599;BME280;3335;43.198;27.918;2023-03-02T06:21:03;148853.00;;;6.32;100.00
6599;BME280;3335;43.198;27.918;2023-03-02T06:23:30;148867.94;;;6.38;100.00
6599;BME280;3335;43.198;27.918;2023-03-02T06:25:57;148879.13;;;6.42;100.00
6599;BME280;3335;43.198;27.918;2023-03-02T06:28:25;148877.88;;;6.42;100.00
6599;BME280;3335;43.198;27.918;2023-03-02T06:30:52;148877.88;;;6.42;100.00
6599;BME280;3335;43.198;27.918;2023-03-02T06:33:19;148887.88;;;6.46;100.00
6599;BME280;3335;43.198;27.918;2023-03-02T06:35:46;148895.34;;;6.49;100.00
6599;BME280;3335;43.198;27.918;2023-03-02T06:38:16;148930.19;;;6.63;100.00
6599;BME280;3335;43.198;27.918;2023-03-02T06:40:43;148927.69;;;6.62;100.00
6599;BME280;3335;43.198;27.918;2023-03-02T06:43:10;148915.25;;;6.57;100.00
6599;BME280;3335;43.198;27.918;2023-03-02T06:45:37;148943.91;;;6.69;100.00
6599;BME280;3335;43.198;27.918;2023-03-02T06:48:04;148977.53;;;6.82;100.00
6599;BME280;3335;43.198;27.918;2023-03-02T06:50:32;148957.63;;;6.74;100.00
6599;BME280;3335;43.198;27.918;2023-03-02T06:52:59;148971.28;;;6.80;100.00
6599;BME280;3335;43.198;27.918;2023-03-02T06:55:28;148997.44;;;6.90;100.00
6599;BME280;3335;43.198;27.918;2023-03-02T06:57:55;148980.03;;;6.83;100.00
6599;BME280;3335;43.198;27.918;2023-03-02T07:00:22;148950.13;;;6.71;100.00
6599;BME280;3335;43.198;27.918;2023-03-02T07:02:53;148982.50;;;6.84;100.00
6599;BME280;3335;43.198;27.918;2023-03-02T07:05:21;148961.31;;;6.76;100.00
6599;BME280;3335;43.198;27.918;2023-03-02T07:07:49;148982.50;;;6.84;100.00
6599;BME280;3335;43.198;27.918;2023-03-02T07:10:16;148997.44;;;6.90;100.00
6599;BME280;3335;43.198;27.918;2023-03-02T07:12:44;149004.94;;;6.93;100.00
6599;BME280;3335;43.198;27.918;2023-03-02T07:15:11;148957.63;;;6.74;100.00
6599;BME280;3335;43.198;27.918;2023-03-02T07:17:40;149007.41;;;6.94;100.00
6599;BME280;3335;43.198;27.918;2023-03-02T07:20:10;149014.91;;;6.97;100.00
6599;BME280;3335;43.198;27.918;2023-03-02T07:22:38;149049.78;;;7.12;100.00
6599;BME280;3335;43.198;27.918;2023-03-02T07:25:07;149069.72;;;7.20;100.00
6599;BME280;3335;43.198;27.918;2023-03-02T07:27:34;149075.91;;;7.22;100.00
6599;BME280;3335;43.198;27.918;2023-03-02T07:30:03;149064.72;;;7.18;100.00
6599;BME280;3335;43.198;27.918;2023-03-02T07:32:30;149077.16;;;7.23;100.00
6599;BME280;3335;43.198;27.918;2023-03-02T07:34:57;149053.50;;;7.13;100.00
6599;BME280;3335;43.198;27.918;2023-03-02T07:37:24;149084.69;;;7.26;100.00
6599;BME280;3335;43.198;27.918;2023-03-02T07:39:51;149077.16;;;7.23;100.00
6599;BME280;3335;43.198;27.918;2023-03-02T07:42:18;149062.25;;;7.17;100.00
6599;BME280;3335;43.198;27.918;2023-03-02T07:44:46;149085.94;;;7.26;100.00
6599;BME280;3335;43.198;27.918;2023-03-02T07:47:14;149125.78;;;7.42;100.00
6599;BME280;3335;43.198;27.918;2023-03-02T07:49:41;149134.50;;;7.46;100.00
6599;BME280;3335;43.198;27.918;2023-03-02T07:52:08;149139.50;;;7.48;100.00
6599;BME280;3335;43.198;27.918;2023-03-02T07:54:35;149097.16;;;7.31;100.00
6599;BME280;3335;43.198;27.918;2023-03-02T07:57:02;149130.78;;;7.44;100.00
6599;BME280;3335;43.198;27.918;2023-03-02T07:59:29;149134.50;;;7.46;100.00
6599;BME280;3335;43.198;27.918;2023-03-02T08:01:56;149146.94;;;7.51;100.00
6599;BME280;3335;43.198;27.918;2023-03-02T08:04:25;149156.97;;;7.55;100.00
6599;BME280;3335;43.198;27.918;2023-03-02T08:06:51;149166.94;;;7.59;100.00
6599;BME280;3335;43.198;27.918;2023-03-02T08:09:18;149181.84;;;7.65;100.00
6599;BME280;3335;43.198;27.918;2023-03-02T08:11:45;149216.75;;;7.79;100.00
6599;BME280;3335;43.198;27.918;2023-03-02T08:14:13;149211.78;;;7.77;100.00
6599;BME280;3335;43.198;27.918;2023-03-02T08:16:40;149114.56;;;7.38;100.00
6599;BME280;3335;43.198;27.918;2023-03-02T08:19:07;149203.06;;;7.74;100.00
6599;BME280;3335;43.198;27.918;2023-03-02T08:21:35;149230.47;;;7.85;100.00
6599;BME280;3335;43.198;27.918;2023-03-02T08:24:03;149216.75;;;7.79;100.00
6599;BME280;3335;43.198;27.918;2023-03-02T08:26:30;149205.53;;;7.75;100.00
6599;BME280;3335;43.198;27.918;2023-03-02T08:28:57;149083.44;;;7.25;100.00
6599;BME280;3335;43.198;27.918;2023-03-02T08:31:24;149204.34;;;7.74;100.00
6599;BME280;3335;43.198;27.918;2023-03-02T08:33:51;149196.81;;;7.71;100.00
6599;BME280;3335;43.198;27.918;2023-03-02T08:36:19;149024.88;;;7.01;100.00
6599;BME280;3335;43.198;27.918;2023-03-02T08:38:48;149062.25;;;7.17;100.00
6599;BME280;3335;43.198;27.918;2023-03-02T08:41:16;149196.81;;;7.71;100.00
6599;BME280;3335;43.198;27.918;2023-03-02T08:43:44;149184.34;;;7.66;100.00
6599;BME280;3335;43.198;27.918;2023-03-02T08:46:13;149154.47;;;7.54;100.00
6599;BME280;3335;43.198;27.918;2023-03-02T08:48:41;149143.25;;;7.50;100.00
6599;BME280;3335;43.198;27.918;2023-03-02T08:51:11;149148.22;;;7.52;100.00
6599;BME280;3335;43.198;27.918;2023-03-02T08:53:40;149161.94;;;7.57;100.00
6599;BME280;3335;43.198;27.918;2023-03-02T08:56:16;149139.50;;;7.48;100.00
6599;BME280;3335;43.198;27.918;2023-03-02T08:58:43;149127.03;;;7.43;100.00
6599;BME280;3335;43.198;27.918;2023-03-02T09:01:14;149123.28;;;7.41;100.00
6599;BME280;3335;43.198;27.918;2023-03-02T09:03:41;149133.28;;;7.45;100.00
6599;BME280;3335;43.198;27.918;2023-03-02T09:06:08;149134.50;;;7.46;100.00
6599;BME280;3335;43.198;27.918;2023-03-02T09:08:35;149124.53;;;7.42;100.00
6599;BME280;3335;43.198;27.918;2023-03-02T09:11:02;149137.00;;;7.47;100.00
6599;BME280;3335;43.198;27.918;2023-03-02T09:13:31;149142.00;;;7.49;100.00
6599;BME280;3335;43.198;27.918;2023-03-02T09:15:58;149186.84;;;7.67;100.00
6599;BME280;3335;43.198;27.918;2023-03-02T09:18:26;149199.31;;;7.72;100.00
6599;BME280;3335;43.198;27.918;2023-03-02T09:20:54;149209.28;;;7.76;100.00
6599;BME280;3335;43.198;27.918;2023-03-02T09:23:22;149211.78;;;7.77;100.00
6599;BME280;3335;43.198;27.918;2023-03-02T09:25:50;149236.72;;;7.87;100.00
6599;BME280;3335;43.198;27.918;2023-03-02T09:28:17;149246.69;;;7.91;100.00
6599;BME280;3335;43.198;27.918;2023-03-02T09:30:48;149244.19;;;7.90;100.00
6599;BME280;3335;43.198;27.918;2023-03-02T09:33:16;149274.16;;;8.03;100.00
6599;BME280;3335;43.198;27.918;2023-03-02T09:35:43;149251.66;;;7.93;100.00
6599;BME280;3335;43.198;27.918;2023-03-02T09:38:11;149276.59;;;8.04;100.00
6599;BME280;3335;43.198;27.918;2023-03-02T09:40:52;149301.53;;;8.14;100.00
6599;BME280;3335;43.198;27.918;2023-03-02T09:43:30;149366.47;;;8.40;100.00
6599;BME280;3335;43.198;27.918;2023-03-02T09:46:14;149443.78;;;8.71;100.00
6599;BME280;3335;43.198;27.918;2023-03-02T09:48:50;149522.34;;;9.03;100.00
6599;BME280;3335;43.198;27.918;2023-03-02T09:51:26;149596.00;;;9.33;100.00
6599;BME280;3335;43.198;27.918;2023-03-02T09:54:01;149673.41;;;9.64;100.00
6599;BME280;3335;43.198;27.918;2023-03-02T09:56:29;149710.81;;;9.80;100.00
6599;BME280;3335;43.198;27.918;2023-03-02T09:59:01;149708.38;;;9.79;100.00
6599;BME280;3335;43.198;27.918;2023-03-02T10:01:38;149735.78;;;9.90;100.00
6599;BME280;3335;43.198;27.918;2023-03-02T10:04:16;149747.03;;;9.94;100.00
6599;BME280;3335;43.198;27.918;2023-03-02T10:06:49;149738.31;;;9.91;100.00
6599;BME280;3335;43.198;27.918;2023-03-02T10:09:18;149710.81;;;9.80;100.00
6599;BME280;3335;43.198;27.918;2023-03-02T10:11:57;149688.34;;;9.71;100.00
6599;BME280;3335;43.198;27.918;2023-03-02T10:14:33;149613.50;;;9.40;100.00
6599;BME280;3335;43.198;27.918;2023-03-02T10:17:20;149581.00;;;9.27;100.00
6599;BME280;3335;43.198;27.918;2023-03-02T10:19:53;149662.13;;;9.60;100.00
6599;BME280;3335;43.198;27.918;2023-03-02T10:22:26;149705.84;;;9.78;100.00
6599;BME280;3335;43.198;27.918;2023-03-02T10:25:01;149715.84;;;9.82;100.00
6599;BME280;3335;43.198;27.918;2023-03-02T10:27:37;149718.34;;;9.83;100.00
6599;BME280;3335;43.198;27.918;2023-03-02T10:30:09;149713.34;;;9.81;100.00
6599;BME280;3335;43.198;27.918;2023-03-02T10:32:42;149743.31;;;9.93;100.00
6599;BME280;3335;43.198;27.918;2023-03-02T10:35:13;149835.78;;;10.30;100.00
6599;BME280;3335;43.198;27.918;2023-03-02T10:37:41;149891.97;;;10.53;100.00
6599;BME280;3335;43.198;27.918;2023-03-02T10:40:21;149923.19;;;10.66;100.00
6599;BME280;3335;43.198;27.918;2023-03-02T10:42:54;149926.94;;;10.67;100.00
6599;BME280;3335;43.198;27.918;2023-03-02T10:45:26;149883.25;;;10.49;100.00
6599;BME280;3335;43.198;27.918;2023-03-02T10:48:02;149883.25;;;10.49;100.00
6599;BME280;3335;43.198;27.918;2023-03-02T10:50:30;149783.25;;;10.09;100.00
6599;BME280;3335;43.198;27.918;2023-03-02T10:52:57;149928.19;;;10.68;100.00
6599;BME280;3335;43.198;27.918;2023-03-02T10:55:25;149935.69;;;10.71;100.00
6599;BME280;3335;43.198;27.918;2023-03-02T10:58:01;149951.94;;;10.77;100.00
6599;BME280;3335;43.198;27.918;2023-03-02T11:00:29;149865.72;;;10.42;100.00
6599;BME280;3335;43.198;27.918;2023-03-02T11:02:58;149875.72;;;10.46;100.00
6599;BME280;3335;43.198;27.918;2023-03-02T11:05:30;149873.19;;;10.45;100.00
6599;BME280;3335;43.198;27.918;2023-03-02T11:07:59;149810.78;;;10.20;100.00
6599;BME280;3335;43.198;27.918;2023-03-02T11:10:28;149830.75;;;10.28;100.00
6599;BME280;3335;43.198;27.918;2023-03-02T11:12:57;149890.72;;;10.52;100.00
6599;BME280;3335;43.198;27.918;2023-03-02T11:15:27;149955.66;;;10.79;100.00
6599;BME280;3335;43.198;27.918;2023-03-02T11:18:00;149911.94;;;10.61;100.00
6599;BME280;3335;43.198;27.918;2023-03-02T11:20:34;149880.72;;;10.48;100.00
6599;BME280;3335;43.198;27.918;2023-03-02T11:23:12;149861.97;;;10.41;100.00
6599;BME280;3335;43.198;27.918;2023-03-02T11:25:45;149790.78;;;10.12;100.00
6599;BME280;3335;43.198;27.918;2023-03-02T11:28:27;149765.78;;;10.02;100.00
6599;BME280;3335;43.198;27.918;2023-03-02T11:30:58;149805.78;;;10.18;100.00
6599;BME280;3335;43.198;27.918;2023-03-02T11:33:29;149753.31;;;9.97;100.00
6599;BME280;3335;43.198;27.918;2023-03-02T11:36:05;149647.19;;;9.54;100.00
6599;BME280;3335;43.198;27.918;2023-03-02T11:38:36;149680.88;;;9.68;100.00
6599;BME280;3335;43.198;27.918;2023-03-02T11:41:14;149635.94;;;9.49;100.00
6599;BME280;3335;43.198;27.918;2023-03-02T11:43:51;149596.00;;;9.33;100.00
6599;BME280;3335;43.198;27.918;2023-03-02T11:46:23;149593.47;;;9.32;100.00
6599;BME280;3335;43.198;27.918;2023-03-02T11:48:53;149558.53;;;9.18;100.00
6599;BME280;3335;43.198;27.918;2023-03-02T11:51:26;149653.41;;;9.56;100.00
6599;BME280;3335;43.198;27.918;2023-03-02T11:53:57;149650.91;;;9.55;100.00
6599;BME280;3335;43.198;27.918;2023-03-02T11:56:27;149516.13;;;9.01;100.00
6599;BME280;3335;43.198;27.918;2023-03-02T11:58:58;149623.47;;;9.44;100.00
6599;BME280;3335;43.198;27.918;2023-03-02T12:01:27;149653.41;;;9.56;100.00
6599;BME280;3335;43.198;27.918;2023-03-02T12:04:05;149593.47;;;9.32;100.00
6599;BME280;3335;43.198;27.918;2023-03-02T12:06:38;149623.47;;;9.44;100.00
6599;BME280;3335;43.198;27.918;2023-03-02T12:09:25;149603.47;;;9.36;100.00
6599;BME280;3335;43.198;27.918;2023-03-02T12:11:58;149660.91;;;9.59;100.00
6599;BME280;3335;43.198;27.918;2023-03-02T12:14:29;149599.75;;;9.35;100.00
6599;BME280;3335;43.198;27.918;2023-03-02T12:17:06;149623.47;;;9.44;100.00
6599;BME280;3335;43.198;27.918;2023-03-02T12:19:43;149619.72;;;9.43;100.00
6599;BME280;3335;43.198;27.918;2023-03-02T12:22:12;149588.53;;;9.30;100.00
6599;BME280;3335;43.198;27.918;2023-03-02T12:24:42;149620.97;;;9.43;100.00
6599;BME280;3335;43.198;27.918;2023-03-02T12:27:23;149619.72;;;9.43;100.00
6599;BME280;3335;43.198;27.918;2023-03-02T12:29:56;149578.53;;;9.26;100.00
6599;BME280;3335;43.198;27.918;2023-03-02T12:32:33;149583.50;;;9.28;100.00
6599;BME280;3335;43.198;27.918;2023-03-02T12:35:08;149529.88;;;9.06;100.00
6599;BME280;3335;43.198;27.918;2023-03-02T12:37:44;149546.06;;;9.13;100.00
6599;BME280;3335;43.198;27.918;2023-03-02T12:40:32;149506.16;;;8.97;100.00
6599;BME280;3335;43.198;27.918;2023-03-02T12:43:24;149516.13;;;9.01;100.00
6599;BME280;3335;43.198;27.918;2023-03-02T12:46:07;149502.41;;;8.95;100.00
6599;BME280;3335;43.198;27.918;2023-03-02T12:48:42;149516.13;;;9.01;100.00
6599;BME280;3335;43.198;27.918;2023-03-02T12:51:15;149528.63;;;9.06;100.00
6599;BME280;3335;43.198;27.918;2023-03-02T12:53:44;149503.66;;;8.96;100.00
6599;BME280;3335;43.198;27.918;2023-03-02T12:56:20;149511.13;;;8.99;100.00
6599;BME280;3335;43.198;27.918;2023-03-02T12:58:48;149536.09;;;9.09;100.00
6599;BME280;3335;43.198;27.918;2023-03-02T13:01:21;149486.16;;;8.89;100.00
6599;BME280;3335;43.198;27.918;2023-03-02T13:03:49;149486.16;;;8.89;100.00
6599;BME280;3335;43.198;27.918;2023-03-02T13:06:18;149446.28;;;8.72;100.00
6599;BME280;3335;43.198;27.918;2023-03-02T13:08:49;149401.38;;;8.54;100.00
6599;BME280;3335;43.198;27.918;2023-03-02T13:11:20;149408.84;;;8.57;100.00